createdAt,value
2023-04-09T00:01:40.750Z,29.50
2023-04-09T00:04:09.386Z,29.47
2023-04-09T00:06:38.479Z,31.80
2023-04-09T00:09:08.126Z,30.33
2023-04-09T00:11:36.326Z,29.23
2023-04-09T00:14:04.535Z,29.67
2023-04-09T00:16:32.825Z,31.40
2023-04-09T00:19:01.129Z,30.20
2023-04-09T00:21:29.525Z,28.47
2023-04-09T00:23:57.696Z,31.50
2023-04-09T00:26:27.559Z,30.73
2023-04-09T00:28:56.199Z,27.70
2023-04-09T00:31:24.688Z,32.23
2023-04-09T00:33:53.044Z,31.37
2023-04-09T00:36:21.265Z,29.83
2023-04-09T00:38:51.834Z,29.47
2023-04-09T00:41:20.832Z,29.17
2023-04-09T00:43:50.747Z,28.97
2023-04-09T00:46:19.480Z,31.73
2023-04-09T00:48:47.721Z,31.83
2023-04-09T00:51:16.568Z,31.43
2023-04-09T00:53:44.954Z,32.10
2023-04-09T00:56:16.392Z,32.33
2023-04-09T00:58:44.603Z,32.47
2023-04-09T01:01:14.167Z,30.90
2023-04-09T01:03:43.652Z,31.13
2023-04-09T01:06:33.765Z,31.60
2023-04-09T01:09:07.278Z,29.37
2023-04-09T01:11:40.048Z,29.13
2023-04-09T01:14:15.608Z,29.80
2023-04-09T01:16:48.746Z,31.03
2023-04-09T01:19:34.657Z,28.83
2023-04-09T01:22:04.989Z,30.57
2023-04-09T01:24:46.185Z,28.90
2023-04-09T01:27:15.708Z,32.77
2023-04-09T01:29:49.094Z,29.93
2023-04-09T01:32:20.416Z,31.67
2023-04-09T01:34:50.312Z,31.90
2023-04-09T01:37:20.041Z,29.83
2023-04-09T01:39:48.586Z,31.00
2023-04-09T01:42:18.838Z,31.63
2023-04-09T01:44:49.190Z,29.00
2023-04-09T01:47:17.761Z,32.50
2023-04-09T01:49:47.068Z,30.77
2023-04-09T01:52:16.154Z,28.77
2023-04-09T01:54:44.293Z,28.40
2023-04-09T01:57:12.559Z,29.47
2023-04-09T01:59:41.200Z,30.93
2023-04-09T02:02:13.887Z,30.73
2023-04-09T02:04:47.678Z,32.93
2023-04-09T02:07:24.551Z,30.50
2023-04-09T02:09:55.075Z,30.37
2023-04-09T02:12:25.659Z,32.23
2023-04-09T02:14:55.722Z,29.90
2023-04-09T02:17:25.348Z,31.47
2023-04-09T02:19:53.606Z,30.53
2023-04-09T02:22:21.924Z,33.47
2023-04-09T02:24:50.141Z,31.87
2023-04-09T02:27:18.572Z,33.50
2023-04-09T02:29:47.147Z,29.43
2023-04-09T02:32:15.611Z,31.70
2023-04-09T02:34:45.878Z,30.40
2023-04-09T02:37:14.396Z,30.33
2023-04-09T02:39:42.647Z,29.23
2023-04-09T02:42:11.101Z,27.87
2023-04-09T02:44:39.401Z,31.20
2023-04-09T02:47:07.780Z,27.70
2023-04-09T02:49:36.127Z,25.50
2023-04-09T02:52:05.912Z,24.57
2023-04-09T02:54:34.217Z,24.93
2023-04-09T02:57:02.459Z,26.10
2023-04-09T02:59:33.025Z,25.57
2023-04-09T03:02:01.207Z,27.83
2023-04-09T03:04:29.640Z,28.97
2023-04-09T03:06:57.848Z,30.20
2023-04-09T03:09:27.445Z,28.83
2023-04-09T03:11:56.492Z,30.47
2023-04-09T03:14:24.848Z,26.37
2023-04-09T03:16:53.408Z,26.30
2023-04-09T03:19:21.611Z,26.03
2023-04-09T03:21:51.492Z,25.13
2023-04-09T03:24:19.753Z,29.97
2023-04-09T03:26:49.629Z,23.53
2023-04-09T03:29:18.151Z,31.93
2023-04-09T03:31:46.420Z,24.03
2023-04-09T03:34:14.866Z,26.33
2023-04-09T03:36:43.123Z,23.00
2023-04-09T03:39:11.369Z,22.13
2023-04-09T03:41:39.686Z,20.87
2023-04-09T03:44:09.478Z,22.67
2023-04-09T03:46:37.809Z,22.97
2023-04-09T03:49:06.158Z,23.80
2023-04-09T03:51:34.399Z,21.43
2023-04-09T03:54:03.063Z,19.57
2023-04-09T03:56:31.256Z,22.70
2023-04-09T03:58:59.638Z,22.27
2023-04-09T04:01:29.282Z,38.33
2023-04-09T04:03:57.652Z,25.97
2023-04-09T04:06:26.110Z,28.47
2023-04-09T04:08:55.034Z,23.50
2023-04-09T04:11:23.372Z,22.40
2023-04-09T04:13:51.669Z,23.07
2023-04-09T04:16:19.889Z,32.27
2023-04-09T04:18:49.592Z,29.00
2023-04-09T04:21:18.265Z,24.27
2023-04-09T04:23:46.757Z,29.83
2023-04-09T04:26:14.963Z,30.73
2023-04-09T04:28:43.611Z,29.00
2023-04-09T04:31:13.106Z,25.40
2023-04-09T04:33:42.872Z,27.80
2023-04-09T04:36:13.959Z,23.13
2023-04-09T04:38:43.029Z,23.47
2023-04-09T04:41:12.475Z,45.50
2023-04-09T04:43:42.126Z,25.07
2023-04-09T04:46:10.659Z,28.63
2023-04-09T04:48:38.899Z,27.50
2023-04-09T04:51:07.420Z,29.03
2023-04-09T04:53:37.009Z,27.73
2023-04-09T04:56:06.368Z,24.20
2023-04-09T04:58:34.615Z,22.83
2023-04-09T05:01:03.070Z,25.93
2023-04-09T05:03:31.386Z,37.57
2023-04-09T05:05:59.786Z,41.13
2023-04-09T05:08:28.061Z,32.70
2023-04-09T05:10:57.709Z,35.50
2023-04-09T05:13:26.013Z,26.33
2023-04-09T05:15:54.244Z,29.17
2023-04-09T05:18:22.443Z,25.67
2023-04-09T05:20:51.028Z,32.73
2023-04-09T05:23:19.202Z,22.57
2023-04-09T05:25:49.705Z,41.83
2023-04-09T05:28:19.244Z,23.30
2023-04-09T05:30:48.129Z,23.93
2023-04-09T05:33:16.401Z,31.10
2023-04-09T05:35:44.889Z,19.37
2023-04-09T05:38:14.814Z,20.07
2023-04-09T05:40:45.036Z,23.30
2023-04-09T05:43:13.528Z,16.03
2023-04-09T05:45:43.288Z,25.53
2023-04-09T05:48:11.698Z,16.93
2023-04-09T05:50:51.465Z,20.87
2023-04-09T05:53:23.592Z,16.40
2023-04-09T05:55:51.965Z,18.50
2023-04-09T05:58:20.462Z,16.07
2023-04-09T06:00:51.628Z,20.63
2023-04-09T06:03:20.399Z,17.23
2023-04-09T06:05:49.202Z,16.70
2023-04-09T06:08:17.440Z,17.20
2023-04-09T06:10:45.599Z,43.97
2023-04-09T06:13:13.903Z,35.47
2023-04-09T06:15:42.100Z,17.13
2023-04-09T06:18:11.982Z,21.20
2023-04-09T06:20:41.524Z,20.23
2023-04-09T06:23:09.819Z,26.93
2023-04-09T06:25:38.199Z,17.77
2023-04-09T06:28:06.743Z,22.07
2023-04-09T06:30:37.133Z,19.30
2023-04-09T06:33:05.451Z,20.30
2023-04-09T06:35:35.054Z,19.37
2023-04-09T06:38:03.568Z,21.20
2023-04-09T06:40:31.802Z,21.10
2023-04-09T06:43:00.115Z,21.70
2023-04-09T06:45:28.522Z,29.30
2023-04-09T06:47:57.221Z,22.63
2023-04-09T06:50:25.812Z,20.57
2023-04-09T06:52:55.604Z,19.23
2023-04-09T06:55:23.760Z,25.37
2023-04-09T06:57:52.398Z,21.30
2023-04-09T07:00:20.655Z,19.30
2023-04-09T07:02:49.156Z,28.97
2023-04-09T07:05:17.946Z,25.93
2023-04-09T07:07:46.458Z,21.63
2023-04-09T07:10:16.420Z,20.57
2023-04-09T07:12:44.693Z,21.60
2023-04-09T07:15:13.065Z,19.60
2023-04-09T07:17:41.796Z,22.60
2023-04-09T07:20:11.084Z,27.67
2023-04-09T07:22:40.208Z,21.57
2023-04-09T07:25:10.135Z,23.23
2023-04-09T07:27:40.114Z,24.13
2023-04-09T07:30:10.783Z,24.70
2023-04-09T07:32:40.016Z,25.80
2023-04-09T07:35:10.819Z,26.33
2023-04-09T07:37:39.590Z,24.47
2023-04-09T07:40:12.241Z,23.83
2023-04-09T07:42:42.833Z,22.70
2023-04-09T07:45:11.254Z,21.53
2023-04-09T07:47:42.171Z,20.23
2023-04-09T07:50:16.702Z,21.17
2023-04-09T07:52:45.917Z,21.03
2023-04-09T07:55:16.263Z,20.87
2023-04-09T07:57:47.072Z,22.30
2023-04-09T08:00:16.562Z,22.70
2023-04-09T08:02:45.859Z,19.70
2023-04-09T08:05:32.172Z,22.23
2023-04-09T08:08:01.827Z,22.10
2023-04-09T08:10:30.731Z,20.30
2023-04-09T08:13:01.648Z,23.83
2023-04-09T08:15:30.501Z,21.80
2023-04-09T08:17:59.236Z,22.37
2023-04-09T08:20:29.542Z,22.00
2023-04-09T08:22:59.438Z,22.17
2023-04-09T08:25:28.590Z,24.07
2023-04-09T08:27:57.061Z,20.80
2023-04-09T08:30:27.455Z,23.77
2023-04-09T08:32:56.106Z,23.00
2023-04-09T08:35:28.510Z,24.33
2023-04-09T08:38:01.850Z,23.83
2023-04-09T08:40:35.069Z,26.67
2023-04-09T08:43:06.724Z,25.03
2023-04-09T08:45:36.790Z,23.80
2023-04-09T08:48:06.578Z,25.47
2023-04-09T08:50:34.975Z,23.97
2023-04-09T08:53:05.741Z,25.70
2023-04-09T08:55:35.549Z,24.33
2023-04-09T08:58:07.275Z,22.87
2023-04-09T09:00:37.103Z,22.87
2023-04-09T09:03:07.276Z,24.07
2023-04-09T09:05:39.894Z,24.87
2023-04-09T09:08:10.129Z,23.70
2023-04-09T09:10:39.731Z,24.40
2023-04-09T09:13:22.521Z,24.33
2023-04-09T09:15:55.303Z,23.87
2023-04-09T09:18:39.786Z,27.67
2023-04-09T09:21:14.472Z,24.97
2023-04-09T09:23:43.397Z,24.40
2023-04-09T09:26:16.390Z,26.50
2023-04-09T09:28:45.456Z,23.37
2023-04-09T09:31:16.029Z,27.17
2023-04-09T09:33:44.830Z,23.13
2023-04-09T09:36:13.482Z,24.70
2023-04-09T09:38:56.454Z,23.80
2023-04-09T09:41:26.019Z,25.73
2023-04-09T09:43:54.565Z,27.07
2023-04-09T09:46:27.468Z,24.77
2023-04-09T09:48:57.608Z,25.90
2023-04-09T09:51:29.774Z,25.13
2023-04-09T09:53:58.874Z,25.83
2023-04-09T09:56:33.412Z,24.27
2023-04-09T09:59:15.320Z,27.00
2023-04-09T10:01:48.909Z,25.10
2023-04-09T10:04:21.192Z,24.93
2023-04-09T10:06:53.329Z,26.00
2023-04-09T10:09:28.127Z,24.17
2023-04-09T10:11:59.360Z,23.23
2023-04-09T10:14:29.396Z,25.20
2023-04-09T10:16:59.364Z,22.80
2023-04-09T10:19:28.204Z,24.23
2023-04-09T10:22:06.220Z,24.50
2023-04-09T10:24:39.750Z,24.70
2023-04-09T10:27:15.104Z,20.73
2023-04-09T10:29:46.536Z,22.03
2023-04-09T10:32:23.590Z,23.73
2023-04-09T10:34:58.496Z,23.67
2023-04-09T10:37:34.212Z,24.80
2023-04-09T10:40:05.227Z,23.70
2023-04-09T10:42:36.686Z,22.97
2023-04-09T10:45:22.413Z,23.00
2023-04-09T10:47:54.865Z,23.50
2023-04-09T10:50:30.928Z,22.87
2023-04-09T10:53:00.755Z,21.97
2023-04-09T10:55:35.452Z,21.23
2023-04-09T10:58:05.864Z,21.00
2023-04-09T11:00:37.941Z,21.43
2023-04-09T11:03:24.926Z,21.23
2023-04-09T11:06:01.081Z,20.20
2023-04-09T11:08:32.271Z,20.70
2023-04-09T11:11:01.535Z,21.77
2023-04-09T11:13:31.359Z,21.13
2023-04-09T11:16:01.205Z,21.43
2023-04-09T11:18:34.042Z,21.50
2023-04-09T11:21:04.302Z,21.60
2023-04-09T11:23:33.590Z,21.10
2023-04-09T11:26:03.908Z,20.17
2023-04-09T11:28:32.294Z,20.10
2023-04-09T11:31:00.592Z,19.47
2023-04-09T11:33:34.809Z,18.97
2023-04-09T11:36:06.426Z,17.27
2023-04-09T11:38:35.148Z,19.17
2023-04-09T11:41:03.360Z,17.07
2023-04-09T11:43:31.733Z,17.30
2023-04-09T11:46:00.751Z,17.97
2023-04-09T11:48:29.189Z,20.73
2023-04-09T11:50:59.084Z,18.67
2023-04-09T11:53:32.211Z,19.43
2023-04-09T11:56:01.649Z,18.40
2023-04-09T11:58:29.910Z,17.53
2023-04-09T12:01:00.419Z,17.27
2023-04-09T12:03:30.786Z,18.13
2023-04-09T12:06:03.882Z,17.90
2023-04-09T12:08:34.624Z,18.37
2023-04-09T12:11:11.456Z,18.60
2023-04-09T12:13:43.256Z,19.43
2023-04-09T12:16:12.274Z,18.03
2023-04-09T12:18:41.178Z,17.90
2023-04-09T12:21:10.924Z,16.77
2023-04-09T12:23:39.119Z,15.30
2023-04-09T12:26:07.974Z,15.87
2023-04-09T12:28:37.148Z,14.30
2023-04-09T12:31:06.178Z,14.37
2023-04-09T12:33:37.969Z,15.07
2023-04-09T12:36:06.567Z,15.90
2023-04-09T12:38:36.118Z,15.63
2023-04-09T12:41:04.968Z,15.73
2023-04-09T12:43:40.269Z,15.77
2023-04-09T12:46:08.787Z,16.30
2023-04-09T12:48:40.478Z,15.33
2023-04-09T12:51:09.153Z,16.63
2023-04-09T12:53:46.090Z,16.73
2023-04-09T12:56:14.613Z,18.27
2023-04-09T12:58:42.992Z,19.57
2023-04-09T13:01:11.486Z,15.10
2023-04-09T13:03:41.480Z,14.27
2023-04-09T13:06:10.256Z,16.77
2023-04-09T13:08:38.536Z,13.53
2023-04-09T13:11:08.434Z,15.90
2023-04-09T13:13:36.606Z,12.90
2023-04-09T13:16:05.398Z,12.07
2023-04-09T13:18:35.749Z,12.37
2023-04-09T13:21:04.503Z,13.20
2023-04-09T13:23:33.276Z,17.17
2023-04-09T13:26:01.748Z,14.57
2023-04-09T13:28:31.289Z,14.00
2023-04-09T13:30:59.514Z,12.33
2023-04-09T13:33:28.013Z,12.20
2023-04-09T13:35:58.354Z,11.30
2023-04-09T13:38:26.722Z,12.97
2023-04-09T13:40:56.465Z,12.97
2023-04-09T13:43:28.139Z,12.43
2023-04-09T13:45:58.274Z,13.03
2023-04-09T13:48:26.902Z,13.10
2023-04-09T13:50:57.656Z,12.13
2023-04-09T13:53:26.208Z,11.87
2023-04-09T13:55:54.586Z,12.47
2023-04-09T13:58:24.896Z,11.77
2023-04-09T14:00:53.478Z,12.70
2023-04-09T14:03:24.902Z,12.13
2023-04-09T14:05:53.675Z,12.80
2023-04-09T14:08:22.264Z,11.77
2023-04-09T14:10:52.530Z,11.87
2023-04-09T14:13:21.639Z,12.47
2023-04-09T14:15:50.067Z,14.97
2023-04-09T14:18:18.570Z,13.20
2023-04-09T14:20:48.132Z,12.83
2023-04-09T14:23:16.604Z,13.27
2023-04-09T14:25:46.092Z,13.80
2023-04-09T14:28:14.366Z,12.93
2023-04-09T14:30:45.569Z,12.07
2023-04-09T14:33:13.854Z,12.40
2023-04-09T14:35:42.347Z,12.90
2023-04-09T14:38:13.233Z,12.40
2023-04-09T14:40:41.475Z,13.23
2023-04-09T14:43:09.918Z,13.37
2023-04-09T14:45:38.323Z,12.93
2023-04-09T14:48:06.808Z,12.77
2023-04-09T14:50:36.198Z,12.10
2023-04-09T14:53:06.670Z,12.70
2023-04-09T14:55:36.236Z,14.27
2023-04-09T14:58:07.281Z,13.00
2023-04-09T15:00:36.102Z,15.20
2023-04-09T15:03:05.044Z,15.27
2023-04-09T15:05:33.452Z,14.37
2023-04-09T15:08:02.531Z,21.83
2023-04-09T15:10:32.451Z,17.83
2023-04-09T15:13:02.254Z,14.93
2023-04-09T15:15:30.586Z,13.17
2023-04-09T15:18:05.697Z,13.27
2023-04-09T15:20:37.574Z,12.57
2023-04-09T15:23:05.997Z,14.13
2023-04-09T15:25:34.419Z,13.97
2023-04-09T15:28:04.457Z,20.47
2023-04-09T15:30:35.544Z,13.83
2023-04-09T15:33:06.321Z,13.90
2023-04-09T15:35:35.305Z,13.63
2023-04-09T15:38:03.806Z,12.50
2023-04-09T15:40:32.776Z,13.37
2023-04-09T15:43:02.212Z,14.40
2023-04-09T15:45:32.014Z,14.53
2023-04-09T15:48:00.402Z,13.87
2023-04-09T15:50:28.933Z,14.97
2023-04-09T15:52:58.595Z,13.80
2023-04-09T15:55:30.786Z,12.73
2023-04-09T15:57:59.502Z,12.53
2023-04-09T16:00:29.337Z,12.60
2023-04-09T16:03:02.759Z,13.60
2023-04-09T16:05:32.745Z,13.23
2023-04-09T16:08:02.427Z,12.23
2023-04-09T16:10:32.044Z,12.40
2023-04-09T16:13:01.151Z,12.93
2023-04-09T16:15:29.955Z,13.43
2023-04-09T16:17:59.958Z,12.23
2023-04-09T16:20:29.671Z,13.47
2023-04-09T16:22:58.833Z,14.63
2023-04-09T16:25:28.213Z,25.57
2023-04-09T16:27:57.350Z,15.37
2023-04-09T16:30:26.282Z,14.53
2023-04-09T16:32:56.013Z,15.73
2023-04-09T16:35:26.095Z,28.50
2023-04-09T16:37:54.727Z,23.40
2023-04-09T16:40:24.426Z,19.80
2023-04-09T16:42:53.050Z,20.23
2023-04-09T16:45:22.110Z,18.27
2023-04-09T16:47:54.013Z,15.73
2023-04-09T16:50:22.670Z,18.20
2023-04-09T16:52:52.658Z,15.77
2023-04-09T16:55:22.211Z,15.33
2023-04-09T16:57:56.139Z,15.10
2023-04-09T17:00:24.561Z,14.30
2023-04-09T17:02:53.625Z,14.47
2023-04-09T17:05:22.928Z,15.37
2023-04-09T17:07:53.706Z,14.37
2023-04-09T17:10:23.300Z,14.97
2023-04-09T17:12:52.256Z,15.20
2023-04-09T17:15:23.104Z,16.17
2023-04-09T17:17:53.816Z,14.80
2023-04-09T17:20:29.966Z,14.70
2023-04-09T17:23:01.023Z,14.57
2023-04-09T17:25:32.324Z,37.63
2023-04-09T17:28:01.694Z,121.23
2023-04-09T17:30:33.230Z,34.90
2023-04-09T17:33:03.762Z,20.80
2023-04-09T17:35:32.784Z,34.40
2023-04-09T17:38:04.882Z,66.90
2023-04-09T17:40:43.136Z,19.93
2023-04-09T17:43:12.907Z,18.63
2023-04-09T17:45:42.778Z,17.57
2023-04-09T17:48:12.495Z,18.97
2023-04-09T17:50:41.840Z,18.27
2023-04-09T17:53:17.423Z,17.67
2023-04-09T17:55:50.853Z,18.17
2023-04-09T17:58:20.740Z,18.47
2023-04-09T18:00:49.165Z,18.50
2023-04-09T18:03:19.251Z,19.00
2023-04-09T18:05:47.791Z,19.63
2023-04-09T18:08:17.621Z,18.47
2023-04-09T18:11:01.684Z,17.93
2023-04-09T18:13:38.341Z,18.23
2023-04-09T18:16:10.085Z,19.37
2023-04-09T18:18:38.525Z,24.13
2023-04-09T18:21:07.350Z,22.23
2023-04-09T18:23:37.380Z,19.43
2023-04-09T18:26:06.898Z,21.00
2023-04-09T18:28:35.544Z,20.50
2023-04-09T18:31:03.938Z,21.20
2023-04-09T18:33:32.563Z,20.20
2023-04-09T18:36:01.737Z,21.03
2023-04-09T18:38:30.524Z,22.07
2023-04-09T18:41:01.543Z,31.50
2023-04-09T18:43:30.150Z,40.40
2023-04-09T18:45:58.642Z,42.77
2023-04-09T18:48:27.654Z,28.40
2023-04-09T18:50:55.996Z,29.43
2023-04-09T18:53:25.066Z,30.30
2023-04-09T18:55:53.632Z,26.97
2023-04-09T18:58:24.033Z,22.50
2023-04-09T19:00:53.011Z,21.17
2023-04-09T19:03:21.984Z,21.77
2023-04-09T19:05:50.711Z,19.57
2023-04-09T19:08:19.123Z,18.40
2023-04-09T19:10:48.411Z,17.67
2023-04-09T19:13:17.027Z,17.27
2023-04-09T19:15:46.730Z,17.90
2023-04-09T19:18:15.160Z,17.50
2023-04-09T19:20:44.180Z,17.80
2023-04-09T19:23:12.494Z,19.83
2023-04-09T19:25:41.027Z,18.63
2023-04-09T19:28:09.499Z,18.33
2023-04-09T19:30:37.876Z,17.60
2023-04-09T19:33:07.721Z,18.00
2023-04-09T19:35:42.214Z,17.90
2023-04-09T19:38:10.595Z,17.13
2023-04-09T19:40:39.044Z,16.97
2023-04-09T19:43:07.617Z,16.83
2023-04-09T19:45:37.369Z,16.10
2023-04-09T19:48:07.586Z,15.83
2023-04-09T19:50:37.790Z,15.57
2023-04-09T19:53:07.169Z,15.67
2023-04-09T19:55:37.888Z,16.07
2023-04-09T19:58:06.801Z,16.47
2023-04-09T20:00:36.260Z,16.83
2023-04-09T20:03:06.029Z,18.13
2023-04-09T20:05:35.882Z,16.40
2023-04-09T20:08:04.494Z,14.33
2023-04-09T20:10:32.746Z,17.03
2023-04-09T20:13:01.652Z,16.80
2023-04-09T20:15:30.239Z,17.27
2023-04-09T20:17:58.734Z,19.47
2023-04-09T20:20:27.266Z,19.00
2023-04-09T20:22:57.648Z,18.27
2023-04-09T20:25:26.394Z,17.23
2023-04-09T20:27:55.330Z,19.37
2023-04-09T20:30:23.869Z,17.77
2023-04-09T20:32:52.310Z,17.00
2023-04-09T20:35:40.398Z,18.00
2023-04-09T20:38:10.571Z,16.53
2023-04-09T20:40:39.035Z,18.03
2023-04-09T20:43:07.677Z,18.13
2023-04-09T20:45:36.077Z,17.93
2023-04-09T20:48:04.633Z,21.73
2023-04-09T20:50:33.058Z,17.33
2023-04-09T20:53:01.535Z,20.50
2023-04-09T20:55:31.192Z,18.03
2023-04-09T20:58:00.232Z,17.60
2023-04-09T21:00:28.644Z,17.53
2023-04-09T21:02:57.008Z,18.43
2023-04-09T21:05:25.328Z,17.77
2023-04-09T21:07:54.239Z,19.37
2023-04-09T21:10:22.819Z,19.93
2023-04-09T21:12:52.369Z,18.20
2023-04-09T21:15:20.683Z,19.03
2023-04-09T21:17:49.152Z,17.57
2023-04-09T21:20:17.556Z,16.63
2023-04-09T21:22:45.908Z,17.43
2023-04-09T21:25:15.518Z,18.77
2023-04-09T21:27:44.097Z,17.03
2023-04-09T21:30:13.986Z,20.10
2023-04-09T21:32:42.276Z,19.87
2023-04-09T21:35:10.648Z,18.90
2023-04-09T21:37:39.024Z,18.20
2023-04-09T21:40:09.665Z,19.37
2023-04-09T21:42:38.115Z,20.07
2023-04-09T21:45:07.784Z,20.57
2023-04-09T21:47:37.668Z,19.20
2023-04-09T21:50:06.753Z,18.87
2023-04-09T21:52:35.619Z,18.43
2023-04-09T21:55:10.370Z,18.70
2023-04-09T21:57:44.480Z,19.93
2023-04-09T22:00:16.206Z,20.80
2023-04-09T22:02:46.591Z,19.20
2023-04-09T22:05:15.805Z,18.07
2023-04-09T22:07:45.178Z,22.77
2023-04-09T22:10:13.756Z,19.33
2023-04-09T22:12:42.317Z,22.47
2023-04-09T22:15:12.183Z,24.30
2023-04-09T22:17:40.631Z,23.17
2023-04-09T22:20:11.159Z,22.30
2023-04-09T22:22:39.938Z,23.40
2023-04-09T22:25:09.024Z,20.53
2023-04-09T22:27:37.427Z,20.63
2023-04-09T22:30:06.586Z,21.73
2023-04-09T22:32:35.152Z,21.13
2023-04-09T22:36:11.393Z,20.07
2023-04-09T22:38:41.486Z,18.80
2023-04-09T22:41:10.201Z,19.73
2023-04-09T22:43:46.882Z,19.50
2023-04-09T22:46:15.240Z,20.07
2023-04-09T22:48:45.028Z,20.30
2023-04-09T22:51:14.537Z,19.00
2023-04-09T22:53:44.283Z,19.57
2023-04-09T22:56:12.658Z,18.40
2023-04-09T22:58:41.094Z,19.57
2023-04-09T23:01:09.593Z,18.00
2023-04-09T23:03:37.938Z,22.13
2023-04-09T23:06:06.888Z,21.90
2023-04-09T23:08:35.264Z,20.60
2023-04-09T23:11:07.303Z,20.33
2023-04-09T23:13:35.660Z,21.23
2023-04-09T23:16:06.226Z,20.73
2023-04-09T23:18:35.901Z,19.90
2023-04-09T23:21:06.080Z,19.33
2023-04-09T23:23:34.563Z,18.50
2023-04-09T23:26:04.540Z,19.40
2023-04-09T23:28:33.045Z,19.10
2023-04-09T23:31:01.366Z,21.50
2023-04-09T23:33:29.603Z,19.83
2023-04-09T23:35:57.759Z,21.17
2023-04-09T23:38:26.186Z,20.50
2023-04-09T23:40:54.376Z,18.60
2023-04-09T23:43:23.951Z,20.07
2023-04-09T23:45:52.157Z,19.93
2023-04-09T23:48:20.319Z,20.37
2023-04-09T23:50:49.734Z,20.07
2023-04-09T23:53:17.976Z,19.27
2023-04-09T23:55:47.744Z,20.37
2023-04-09T23:58:16.050Z,20.27
